sensor_id;sensor_type;location;lat;lon;timestamp;temperature;humidity
3190;DHT22;1606;51.946;10.558;2023-07-20T00:01:10;20.60;99.90
3190;DHT22;1606;51.946;10.558;2023-07-20T00:03:39;20.60;99.90
3190;DHT22;1606;51.946;10.558;2023-07-20T00:06:07;20.60;99.90
3190;DHT22;1606;51.946;10.558;2023-07-20T00:08:35;20.60;99.90
3190;DHT22;1606;51.946;10.558;2023-07-20T00:11:03;20.60;99.90
3190;DHT22;1606;51.946;10.558;2023-07-20T00:13:31;20.50;99.90
3190;DHT22;1606;51.946;10.558;2023-07-20T00:16:01;20.60;99.90
3190;DHT22;1606;51.946;10.558;2023-07-20T00:18:29;20.70;99.90
3190;DHT22;1606;51.946;10.558;2023-07-20T00:20:57;20.70;99.90
3190;DHT22;1606;51.946;10.558;2023-07-20T00:23:26;20.70;99.90
3190;DHT22;1606;51.946;10.558;2023-07-20T00:25:54;20.70;99.90
3190;DHT22;1606;51.946;10.558;2023-07-20T00:28:22;20.50;99.90
3190;DHT22;1606;51.946;10.558;2023-07-20T00:30:50;20.40;99.90
3190;DHT22;1606;51.946;10.558;2023-07-20T00:33:21;20.40;99.90
3190;DHT22;1606;51.946;10.558;2023-07-20T00:35:49;20.40;99.90
3190;DHT22;1606;51.946;10.558;2023-07-20T00:38:21;20.40;99.90
3190;DHT22;1606;51.946;10.558;2023-07-20T00:40:49;20.30;99.90
3190;DHT22;1606;51.946;10.558;2023-07-20T00:43:17;20.40;99.90
3190;DHT22;1606;51.946;10.558;2023-07-20T00:45:46;20.40;99.90
3190;DHT22;1606;51.946;10.558;2023-07-20T00:48:14;20.40;99.90
3190;DHT22;1606;51.946;10.558;2023-07-20T00:50:44;20.40;99.90
3190;DHT22;1606;51.946;10.558;2023-07-20T00:53:12;20.50;99.90
3190;DHT22;1606;51.946;10.558;2023-07-20T00:55:40;20.50;99.90
3190;DHT22;1606;51.946;10.558;2023-07-20T00:58:08;20.60;99.90
3190;DHT22;1606;51.946;10.558;2023-07-20T01:00:36;20.50;99.90
3190;DHT22;1606;51.946;10.558;2023-07-20T01:03:04;20.50;99.90
3190;DHT22;1606;51.946;10.558;2023-07-20T01:05:38;20.50;99.90
3190;DHT22;1606;51.946;10.558;2023-07-20T01:08:13;20.50;99.90
3190;DHT22;1606;51.946;10.558;2023-07-20T01:10:48;20.50;99.90
3190;DHT22;1606;51.946;10.558;2023-07-20T01:13:18;20.50;99.90
3190;DHT22;1606;51.946;10.558;2023-07-20T01:15:49;20.50;99.90
3190;DHT22;1606;51.946;10.558;2023-07-20T01:18:18;20.60;99.90
3190;DHT22;1606;51.946;10.558;2023-07-20T01:20:46;20.60;99.90
3190;DHT22;1606;51.946;10.558;2023-07-20T01:23:47;20.70;99.90
3190;DHT22;1606;51.946;10.558;2023-07-20T01:26:32;20.70;99.90
3190;DHT22;1606;51.946;10.558;2023-07-20T01:29:17;20.70;99.90
3190;DHT22;1606;51.946;10.558;2023-07-20T01:31:52;20.60;99.90
3190;DHT22;1606;51.946;10.558;2023-07-20T01:34:22;20.60;99.90
3190;DHT22;1606;51.946;10.558;2023-07-20T01:36:54;20.70;99.90
3190;DHT22;1606;51.946;10.558;2023-07-20T01:39:23;20.70;99.90
3190;DHT22;1606;51.946;10.558;2023-07-20T01:41:51;20.70;99.90
3190;DHT22;1606;51.946;10.558;2023-07-20T01:44:20;20.70;99.90
3190;DHT22;1606;51.946;10.558;2023-07-20T01:46:48;20.70;99.90
3190;DHT22;1606;51.946;10.558;2023-07-20T01:49:17;20.70;99.90
3190;DHT22;1606;51.946;10.558;2023-07-20T01:51:45;20.70;99.90
3190;DHT22;1606;51.946;10.558;2023-07-20T01:54:13;20.60;99.90
3190;DHT22;1606;51.946;10.558;2023-07-20T01:56:41;20.70;99.90
3190;DHT22;1606;51.946;10.558;2023-07-20T01:59:08;20.70;99.90
3190;DHT22;1606;51.946;10.558;2023-07-20T02:01:36;20.70;99.90
3190;DHT22;1606;51.946;10.558;2023-07-20T02:04:04;20.70;99.90
3190;DHT22;1606;51.946;10.558;2023-07-20T02:06:33;20.70;99.90
3190;DHT22;1606;51.946;10.558;2023-07-20T02:09:01;20.70;99.90
3190;DHT22;1606;51.946;10.558;2023-07-20T02:11:29;20.70;99.90
3190;DHT22;1606;51.946;10.558;2023-07-20T02:13:57;20.70;99.90
3190;DHT22;1606;51.946;10.558;2023-07-20T02:16:25;20.70;99.90
3190;DHT22;1606;51.946;10.558;2023-07-20T02:18:53;20.60;99.90
3190;DHT22;1606;51.946;10.558;2023-07-20T02:21:23;20.50;99.90
3190;DHT22;1606;51.946;10.558;2023-07-20T02:23:52;20.60;99.90
3190;DHT22;1606;51.946;10.558;2023-07-20T02:26:20;20.60;99.90
3190;DHT22;1606;51.946;10.558;2023-07-20T02:28:49;20.60;99.90
3190;DHT22;1606;51.946;10.558;2023-07-20T02:31:17;20.70;99.90
3190;DHT22;1606;51.946;10.558;2023-07-20T02:33:45;20.80;99.90
3190;DHT22;1606;51.946;10.558;2023-07-20T02:36:13;20.70;99.90
3190;DHT22;1606;51.946;10.558;2023-07-20T02:38:40;20.60;99.90
3190;DHT22;1606;51.946;10.558;2023-07-20T02:41:10;20.70;99.90
3190;DHT22;1606;51.946;10.558;2023-07-20T02:43:38;20.70;99.90
3190;DHT22;1606;51.946;10.558;2023-07-20T02:46:05;20.70;99.90
3190;DHT22;1606;51.946;10.558;2023-07-20T02:48:33;20.70;99.90
3190;DHT22;1606;51.946;10.558;2023-07-20T02:51:01;20.60;99.90
3190;DHT22;1606;51.946;10.558;2023-07-20T02:53:29;20.60;99.90
3190;DHT22;1606;51.946;10.558;2023-07-20T02:55:57;20.60;99.90
3190;DHT22;1606;51.946;10.558;2023-07-20T02:58:26;20.60;99.90
3190;DHT22;1606;51.946;10.558;2023-07-20T03:00:54;20.70;99.90
3190;DHT22;1606;51.946;10.558;2023-07-20T03:03:22;20.60;99.90
3190;DHT22;1606;51.946;10.558;2023-07-20T03:05:50;20.50;99.90
3190;DHT22;1606;51.946;10.558;2023-07-20T03:08:21;20.40;99.90
3190;DHT22;1606;51.946;10.558;2023-07-20T03:10:49;20.40;99.90
3190;DHT22;1606;51.946;10.558;2023-07-20T03:13:17;20.30;99.90
3190;DHT22;1606;51.946;10.558;2023-07-20T03:15:46;20.30;99.90
3190;DHT22;1606;51.946;10.558;2023-07-20T03:18:14;20.20;99.90
3190;DHT22;1606;51.946;10.558;2023-07-20T03:20:42;20.30;99.90
3190;DHT22;1606;51.946;10.558;2023-07-20T03:23:12;20.30;99.90
3190;DHT22;1606;51.946;10.558;2023-07-20T03:25:40;20.30;99.90
3190;DHT22;1606;51.946;10.558;2023-07-20T03:28:08;20.30;99.90
3190;DHT22;1606;51.946;10.558;2023-07-20T03:30:36;20.40;99.90
3190;DHT22;1606;51.946;10.558;2023-07-20T03:33:05;20.40;99.90
3190;DHT22;1606;51.946;10.558;2023-07-20T03:35:33;20.40;99.90
3190;DHT22;1606;51.946;10.558;2023-07-20T03:38:01;20.40;99.90
3190;DHT22;1606;51.946;10.558;2023-07-20T03:40:32;20.40;99.90
3190;DHT22;1606;51.946;10.558;2023-07-20T03:43:00;20.40;99.90
3190;DHT22;1606;51.946;10.558;2023-07-20T03:45:27;20.30;99.90
3190;DHT22;1606;51.946;10.558;2023-07-20T03:47:55;20.20;99.90
3190;DHT22;1606;51.946;10.558;2023-07-20T03:50:25;20.20;99.90
3190;DHT22;1606;51.946;10.558;2023-07-20T03:52:53;20.30;99.90
3190;DHT22;1606;51.946;10.558;2023-07-20T03:55:21;20.30;99.90
3190;DHT22;1606;51.946;10.558;2023-07-20T03:57:49;20.40;99.90
3190;DHT22;1606;51.946;10.558;2023-07-20T04:00:18;20.30;99.90
3190;DHT22;1606;51.946;10.558;2023-07-20T04:02:46;20.30;99.90
3190;DHT22;1606;51.946;10.558;2023-07-20T04:05:14;20.30;99.90
3190;DHT22;1606;51.946;10.558;2023-07-20T04:07:45;20.20;99.90
3190;DHT22;1606;51.946;10.558;2023-07-20T04:10:13;20.10;99.90
3190;DHT22;1606;51.946;10.558;2023-07-20T04:12:41;20.00;99.90
3190;DHT22;1606;51.946;10.558;2023-07-20T04:15:11;19.90;99.90
3190;DHT22;1606;51.946;10.558;2023-07-20T04:17:39;19.90;99.90
3190;DHT22;1606;51.946;10.558;2023-07-20T04:20:08;20.00;99.90
3190;DHT22;1606;51.946;10.558;2023-07-20T04:22:38;19.90;99.90
3190;DHT22;1606;51.946;10.558;2023-07-20T04:25:08;19.90;99.90
3190;DHT22;1606;51.946;10.558;2023-07-20T04:27:37;19.90;99.90
3190;DHT22;1606;51.946;10.558;2023-07-20T04:30:07;19.90;99.90
3190;DHT22;1606;51.946;10.558;2023-07-20T04:32:35;19.90;99.90
3190;DHT22;1606;51.946;10.558;2023-07-20T04:35:06;20.00;99.90
3190;DHT22;1606;51.946;10.558;2023-07-20T04:37:34;20.00;99.90
3190;DHT22;1606;51.946;10.558;2023-07-20T04:40:06;20.10;99.90
3190;DHT22;1606;51.946;10.558;2023-07-20T04:42:36;20.10;99.90
3190;DHT22;1606;51.946;10.558;2023-07-20T04:45:04;20.00;99.90
3190;DHT22;1606;51.946;10.558;2023-07-20T04:47:32;19.70;99.90
3190;DHT22;1606;51.946;10.558;2023-07-20T04:50:00;19.70;99.90
3190;DHT22;1606;51.946;10.558;2023-07-20T04:52:28;19.90;99.90
3190;DHT22;1606;51.946;10.558;2023-07-20T04:55:08;19.80;99.90
3190;DHT22;1606;51.946;10.558;2023-07-20T04:57:38;19.70;99.90
3190;DHT22;1606;51.946;10.558;2023-07-20T05:00:07;19.80;99.90
3190;DHT22;1606;51.946;10.558;2023-07-20T05:02:36;19.80;99.90
3190;DHT22;1606;51.946;10.558;2023-07-20T05:05:08;19.90;99.90
3190;DHT22;1606;51.946;10.558;2023-07-20T05:07:36;19.90;99.90
3190;DHT22;1606;51.946;10.558;2023-07-20T05:10:05;20.00;99.90
3190;DHT22;1606;51.946;10.558;2023-07-20T05:12:33;19.80;99.90
3190;DHT22;1606;51.946;10.558;2023-07-20T05:15:04;19.60;99.90
3190;DHT22;1606;51.946;10.558;2023-07-20T05:17:32;19.50;99.90
3190;DHT22;1606;51.946;10.558;2023-07-20T05:19:59;19.40;99.90
3190;DHT22;1606;51.946;10.558;2023-07-20T05:22:27;19.40;99.90
3190;DHT22;1606;51.946;10.558;2023-07-20T05:24:56;19.50;99.90
3190;DHT22;1606;51.946;10.558;2023-07-20T05:27:27;19.50;99.90
3190;DHT22;1606;51.946;10.558;2023-07-20T05:29:55;19.50;99.90
3190;DHT22;1606;51.946;10.558;2023-07-20T05:32:27;19.50;99.90
3190;DHT22;1606;51.946;10.558;2023-07-20T05:34:55;19.50;99.90
3190;DHT22;1606;51.946;10.558;2023-07-20T05:37:23;19.40;99.90
3190;DHT22;1606;51.946;10.558;2023-07-20T05:39:51;19.50;99.90
3190;DHT22;1606;51.946;10.558;2023-07-20T05:42:19;19.50;99.90
3190;DHT22;1606;51.946;10.558;2023-07-20T05:44:47;19.50;99.90
3190;DHT22;1606;51.946;10.558;2023-07-20T05:47:16;19.70;99.90
3190;DHT22;1606;51.946;10.558;2023-07-20T05:49:45;19.70;99.90
3190;DHT22;1606;51.946;10.558;2023-07-20T05:52:13;19.80;99.90
3190;DHT22;1606;51.946;10.558;2023-07-20T05:54:41;19.70;99.90
3190;DHT22;1606;51.946;10.558;2023-07-20T05:57:09;19.50;99.90
3190;DHT22;1606;51.946;10.558;2023-07-20T05:59:37;19.70;99.90
3190;DHT22;1606;51.946;10.558;2023-07-20T06:02:07;19.50;99.90
3190;DHT22;1606;51.946;10.558;2023-07-20T06:04:35;19.30;99.90
3190;DHT22;1606;51.946;10.558;2023-07-20T06:07:04;19.20;99.90
3190;DHT22;1606;51.946;10.558;2023-07-20T06:09:34;19.00;99.90
3190;DHT22;1606;51.946;10.558;2023-07-20T06:12:03;18.70;99.90
3190;DHT22;1606;51.946;10.558;2023-07-20T06:14:33;18.70;99.90
3190;DHT22;1606;51.946;10.558;2023-07-20T06:17:05;18.60;99.90
3190;DHT22;1606;51.946;10.558;2023-07-20T06:19:33;18.80;99.90
3190;DHT22;1606;51.946;10.558;2023-07-20T06:22:02;18.70;99.90
3190;DHT22;1606;51.946;10.558;2023-07-20T06:24:31;18.50;99.90
3190;DHT22;1606;51.946;10.558;2023-07-20T06:26:59;18.20;99.90
3190;DHT22;1606;51.946;10.558;2023-07-20T06:29:27;18.20;99.90
3190;DHT22;1606;51.946;10.558;2023-07-20T06:31:55;18.40;99.90
3190;DHT22;1606;51.946;10.558;2023-07-20T06:34:23;18.40;99.90
3190;DHT22;1606;51.946;10.558;2023-07-20T06:36:51;18.50;99.90
3190;DHT22;1606;51.946;10.558;2023-07-20T06:39:19;18.20;99.90
3190;DHT22;1606;51.946;10.558;2023-07-20T06:41:53;18.40;99.90
3190;DHT22;1606;51.946;10.558;2023-07-20T06:44:21;18.70;99.90
3190;DHT22;1606;51.946;10.558;2023-07-20T06:46:50;18.80;99.90
3190;DHT22;1606;51.946;10.558;2023-07-20T06:49:24;18.70;99.90
3190;DHT22;1606;51.946;10.558;2023-07-20T06:51:52;18.70;99.90
3190;DHT22;1606;51.946;10.558;2023-07-20T06:54:23;18.70;99.90
3190;DHT22;1606;51.946;10.558;2023-07-20T06:56:52;18.80;99.90
3190;DHT22;1606;51.946;10.558;2023-07-20T06:59:25;18.70;99.90
3190;DHT22;1606;51.946;10.558;2023-07-20T07:01:53;18.70;99.90
3190;DHT22;1606;51.946;10.558;2023-07-20T07:04:21;18.90;99.90
3190;DHT22;1606;51.946;10.558;2023-07-20T07:06:49;19.00;99.90
3190;DHT22;1606;51.946;10.558;2023-07-20T07:09:17;19.00;99.90
3190;DHT22;1606;51.946;10.558;2023-07-20T07:11:48;19.00;99.90
3190;DHT22;1606;51.946;10.558;2023-07-20T07:14:21;19.10;99.90
3190;DHT22;1606;51.946;10.558;2023-07-20T07:16:50;19.30;99.90
3190;DHT22;1606;51.946;10.558;2023-07-20T07:19:24;19.30;99.90
3190;DHT22;1606;51.946;10.558;2023-07-20T07:21:52;19.40;99.90
3190;DHT22;1606;51.946;10.558;2023-07-20T07:24:25;19.30;99.90
3190;DHT22;1606;51.946;10.558;2023-07-20T07:26:55;19.20;99.90
3190;DHT22;1606;51.946;10.558;2023-07-20T07:29:25;19.10;99.90
3190;DHT22;1606;51.946;10.558;2023-07-20T07:31:55;19.00;99.90
3190;DHT22;1606;51.946;10.558;2023-07-20T07:34:23;18.90;99.90
3190;DHT22;1606;51.946;10.558;2023-07-20T07:36:52;18.90;99.90
3190;DHT22;1606;51.946;10.558;2023-07-20T07:39:20;18.80;99.90
3190;DHT22;1606;51.946;10.558;2023-07-20T07:41:51;18.90;99.90
3190;DHT22;1606;51.946;10.558;2023-07-20T07:44:22;19.00;99.90
3190;DHT22;1606;51.946;10.558;2023-07-20T07:47:05;19.20;99.90
3190;DHT22;1606;51.946;10.558;2023-07-20T07:49:33;19.30;99.90
3190;DHT22;1606;51.946;10.558;2023-07-20T07:52:01;19.20;99.90
3190;DHT22;1606;51.946;10.558;2023-07-20T07:54:29;19.40;99.90
3190;DHT22;1606;51.946;10.558;2023-07-20T07:56:57;19.10;99.90
3190;DHT22;1606;51.946;10.558;2023-07-20T07:59:25;18.90;99.90
3190;DHT22;1606;51.946;10.558;2023-07-20T08:01:56;18.60;99.90
3190;DHT22;1606;51.946;10.558;2023-07-20T08:04:28;18.40;99.90
3190;DHT22;1606;51.946;10.558;2023-07-20T08:06:56;18.10;99.90
3190;DHT22;1606;51.946;10.558;2023-07-20T08:09:28;18.00;99.90
3190;DHT22;1606;51.946;10.558;2023-07-20T08:11:57;17.90;99.90
3190;DHT22;1606;51.946;10.558;2023-07-20T08:14:26;18.10;99.90
3190;DHT22;1606;51.946;10.558;2023-07-20T08:16:54;18.30;99.90
3190;DHT22;1606;51.946;10.558;2023-07-20T08:19:22;18.20;99.90
3190;DHT22;1606;51.946;10.558;2023-07-20T08:21:52;18.00;99.90
3190;DHT22;1606;51.946;10.558;2023-07-20T08:24:19;17.90;99.90
3190;DHT22;1606;51.946;10.558;2023-07-20T08:26:49;18.10;99.90
3190;DHT22;1606;51.946;10.558;2023-07-20T08:29:19;18.30;99.90
3190;DHT22;1606;51.946;10.558;2023-07-20T08:31:47;18.70;99.90
3190;DHT22;1606;51.946;10.558;2023-07-20T08:34:15;18.90;99.90
3190;DHT22;1606;51.946;10.558;2023-07-20T08:36:58;19.00;99.90
3190;DHT22;1606;51.946;10.558;2023-07-20T08:39:26;19.20;99.90
3190;DHT22;1606;51.946;10.558;2023-07-20T08:41:55;19.30;99.90
3190;DHT22;1606;51.946;10.558;2023-07-20T08:44:24;19.30;99.90
3190;DHT22;1606;51.946;10.558;2023-07-20T08:46:57;19.10;99.90
3190;DHT22;1606;51.946;10.558;2023-07-20T08:49:26;18.80;99.90
3190;DHT22;1606;51.946;10.558;2023-07-20T08:51:56;18.90;99.90
3190;DHT22;1606;51.946;10.558;2023-07-20T08:54:29;18.90;99.90
3190;DHT22;1606;51.946;10.558;2023-07-20T08:57:01;19.10;99.90
3190;DHT22;1606;51.946;10.558;2023-07-20T08:59:31;19.10;99.90
3190;DHT22;1606;51.946;10.558;2023-07-20T09:01:59;19.10;99.90
3190;DHT22;1606;51.946;10.558;2023-07-20T09:04:27;19.20;99.90
3190;DHT22;1606;51.946;10.558;2023-07-20T09:06:57;19.30;99.90
3190;DHT22;1606;51.946;10.558;2023-07-20T09:09:26;19.30;99.90
3190;DHT22;1606;51.946;10.558;2023-07-20T09:11:54;19.30;99.90
3190;DHT22;1606;51.946;10.558;2023-07-20T09:14:23;19.30;99.90
3190;DHT22;1606;51.946;10.558;2023-07-20T09:16:53;19.10;99.90
3190;DHT22;1606;51.946;10.558;2023-07-20T09:19:22;19.00;99.90
3190;DHT22;1606;51.946;10.558;2023-07-20T09:21:51;19.10;99.90
3190;DHT22;1606;51.946;10.558;2023-07-20T09:24:20;19.30;99.90
3190;DHT22;1606;51.946;10.558;2023-07-20T09:26:53;19.40;99.90
3190;DHT22;1606;51.946;10.558;2023-07-20T09:29:24;19.70;99.90
3190;DHT22;1606;51.946;10.558;2023-07-20T09:31:59;20.00;99.90
3190;DHT22;1606;51.946;10.558;2023-07-20T09:34:28;20.00;99.90
3190;DHT22;1606;51.946;10.558;2023-07-20T09:37:00;20.30;99.90
3190;DHT22;1606;51.946;10.558;2023-07-20T09:39:29;20.40;99.90
3190;DHT22;1606;51.946;10.558;2023-07-20T09:42:01;20.40;99.90
3190;DHT22;1606;51.946;10.558;2023-07-20T09:44:36;20.20;99.90
3190;DHT22;1606;51.946;10.558;2023-07-20T09:47:07;20.20;99.90
3190;DHT22;1606;51.946;10.558;2023-07-20T09:49:39;20.10;99.90
3190;DHT22;1606;51.946;10.558;2023-07-20T09:52:11;20.00;99.90
3190;DHT22;1606;51.946;10.558;2023-07-20T09:54:41;19.90;99.90
3190;DHT22;1606;51.946;10.558;2023-07-20T09:57:11;20.10;99.90
3190;DHT22;1606;51.946;10.558;2023-07-20T09:59:43;20.20;99.90
3190;DHT22;1606;51.946;10.558;2023-07-20T10:02:20;20.10;99.90
3190;DHT22;1606;51.946;10.558;2023-07-20T10:04:52;20.40;99.90
3190;DHT22;1606;51.946;10.558;2023-07-20T10:07:22;20.50;99.90
3190;DHT22;1606;51.946;10.558;2023-07-20T10:09:52;20.80;99.90
3190;DHT22;1606;51.946;10.558;2023-07-20T10:12:25;21.00;99.90
3190;DHT22;1606;51.946;10.558;2023-07-20T10:15:05;21.10;99.90
3190;DHT22;1606;51.946;10.558;2023-07-20T10:17:43;21.30;99.90
3190;DHT22;1606;51.946;10.558;2023-07-20T10:20:19;21.40;99.90
3190;DHT22;1606;51.946;10.558;2023-07-20T10:22:49;21.70;99.90
3190;DHT22;1606;51.946;10.558;2023-07-20T10:25:23;21.50;99.90
3190;DHT22;1606;51.946;10.558;2023-07-20T10:27:57;21.60;99.80
3190;DHT22;1606;51.946;10.558;2023-07-20T10:30:26;21.80;99.90
3190;DHT22;1606;51.946;10.558;2023-07-20T10:32:58;22.20;99.90
3190;DHT22;1606;51.946;10.558;2023-07-20T10:35:30;22.40;99.90
3190;DHT22;1606;51.946;10.558;2023-07-20T10:38:02;22.70;97.30
3190;DHT22;1606;51.946;10.558;2023-07-20T10:40:31;22.60;98.60
3190;DHT22;1606;51.946;10.558;2023-07-20T10:43:03;22.60;98.50
3190;DHT22;1606;51.946;10.558;2023-07-20T10:45:41;22.60;99.50
3190;DHT22;1606;51.946;10.558;2023-07-20T10:48:16;22.60;97.10
3190;DHT22;1606;51.946;10.558;2023-07-20T10:53:35;22.40;95.90
3190;DHT22;1606;51.946;10.558;2023-07-20T10:56:07;22.90;97.50
3190;DHT22;1606;51.946;10.558;2023-07-20T10:58:38;22.80;96.20
3190;DHT22;1606;51.946;10.558;2023-07-20T11:01:13;22.80;95.80
3190;DHT22;1606;51.946;10.558;2023-07-20T11:03:43;22.90;96.40
3190;DHT22;1606;51.946;10.558;2023-07-20T11:06:34;22.90;95.90
3190;DHT22;1606;51.946;10.558;2023-07-20T11:09:09;22.60;95.60
3190;DHT22;1606;51.946;10.558;2023-07-20T11:11:42;22.40;97.40
3190;DHT22;1606;51.946;10.558;2023-07-20T11:14:21;22.40;98.50
3190;DHT22;1606;51.946;10.558;2023-07-20T11:16:50;22.50;96.40
3190;DHT22;1606;51.946;10.558;2023-07-20T11:19:19;22.70;96.80
3190;DHT22;1606;51.946;10.558;2023-07-20T11:21:51;22.80;95.60
3190;DHT22;1606;51.946;10.558;2023-07-20T11:24:29;23.00;94.70
3190;DHT22;1606;51.946;10.558;2023-07-20T11:26:58;23.20;92.40
3190;DHT22;1606;51.946;10.558;2023-07-20T11:29:29;23.20;95.10
3190;DHT22;1606;51.946;10.558;2023-07-20T11:32:00;23.10;93.20
3190;DHT22;1606;51.946;10.558;2023-07-20T11:34:32;22.80;91.60
3190;DHT22;1606;51.946;10.558;2023-07-20T11:37:00;23.20;93.20
3190;DHT22;1606;51.946;10.558;2023-07-20T11:39:34;23.40;92.40
3190;DHT22;1606;51.946;10.558;2023-07-20T11:42:05;23.90;88.60
3190;DHT22;1606;51.946;10.558;2023-07-20T11:44:34;23.70;85.90
3190;DHT22;1606;51.946;10.558;2023-07-20T11:47:04;23.60;89.50
3190;DHT22;1606;51.946;10.558;2023-07-20T11:49:35;23.70;83.40
3190;DHT22;1606;51.946;10.558;2023-07-20T11:52:05;23.60;88.10
3190;DHT22;1606;51.946;10.558;2023-07-20T11:54:34;23.50;88.50
3190;DHT22;1606;51.946;10.558;2023-07-20T11:57:03;23.60;88.40
3190;DHT22;1606;51.946;10.558;2023-07-20T11:59:31;23.20;85.90
3190;DHT22;1606;51.946;10.558;2023-07-20T12:02:02;22.80;90.20
3190;DHT22;1606;51.946;10.558;2023-07-20T12:04:31;23.20;90.90
3190;DHT22;1606;51.946;10.558;2023-07-20T12:06:59;23.70;90.00
3190;DHT22;1606;51.946;10.558;2023-07-20T12:09:27;23.70;84.60
3190;DHT22;1606;51.946;10.558;2023-07-20T12:12:15;23.20;86.00
3190;DHT22;1606;51.946;10.558;2023-07-20T12:14:43;23.60;89.30
3190;DHT22;1606;51.946;10.558;2023-07-20T12:17:13;23.80;87.30
3190;DHT22;1606;51.946;10.558;2023-07-20T12:19:41;24.00;83.10
3190;DHT22;1606;51.946;10.558;2023-07-20T12:22:09;24.10;81.70
3190;DHT22;1606;51.946;10.558;2023-07-20T12:24:38;24.30;79.80
3190;DHT22;1606;51.946;10.558;2023-07-20T12:27:06;24.30;82.00
3190;DHT22;1606;51.946;10.558;2023-07-20T12:29:34;24.60;79.10
3190;DHT22;1606;51.946;10.558;2023-07-20T12:32:04;24.50;80.50
3190;DHT22;1606;51.946;10.558;2023-07-20T12:34:34;24.50;79.70
3190;DHT22;1606;51.946;10.558;2023-07-20T12:37:03;24.50;78.30
3190;DHT22;1606;51.946;10.558;2023-07-20T12:39:31;24.30;77.50
3190;DHT22;1606;51.946;10.558;2023-07-20T12:41:59;24.30;78.80
3190;DHT22;1606;51.946;10.558;2023-07-20T12:44:27;24.10;78.10
3190;DHT22;1606;51.946;10.558;2023-07-20T12:46:55;23.90;77.20
3190;DHT22;1606;51.946;10.558;2023-07-20T12:49:23;23.60;76.30
3190;DHT22;1606;51.946;10.558;2023-07-20T12:51:52;23.80;79.10
3190;DHT22;1606;51.946;10.558;2023-07-20T12:54:20;23.90;75.70
3190;DHT22;1606;51.946;10.558;2023-07-20T12:56:48;24.10;79.30
3190;DHT22;1606;51.946;10.558;2023-07-20T12:59:19;24.10;77.30
3190;DHT22;1606;51.946;10.558;2023-07-20T13:01:47;24.20;75.90
3190;DHT22;1606;51.946;10.558;2023-07-20T13:04:15;24.40;73.80
3190;DHT22;1606;51.946;10.558;2023-07-20T13:06:43;24.50;75.20
3190;DHT22;1606;51.946;10.558;2023-07-20T13:09:12;24.40;75.70
3190;DHT22;1606;51.946;10.558;2023-07-20T13:11:40;24.10;75.40
3190;DHT22;1606;51.946;10.558;2023-07-20T13:14:08;24.00;75.70
3190;DHT22;1606;51.946;10.558;2023-07-20T13:16:35;23.70;76.20
3190;DHT22;1606;51.946;10.558;2023-07-20T13:19:03;23.70;77.50
3190;DHT22;1606;51.946;10.558;2023-07-20T13:21:31;23.70;78.40
3190;DHT22;1606;51.946;10.558;2023-07-20T13:23:59;23.80;79.20
3190;DHT22;1606;51.946;10.558;2023-07-20T13:26:29;23.70;78.90
3190;DHT22;1606;51.946;10.558;2023-07-20T13:28:57;23.80;77.80
3190;DHT22;1606;51.946;10.558;2023-07-20T13:31:24;24.10;81.00
3190;DHT22;1606;51.946;10.558;2023-07-20T13:33:54;24.50;78.70
3190;DHT22;1606;51.946;10.558;2023-07-20T13:36:26;24.20;75.30
3190;DHT22;1606;51.946;10.558;2023-07-20T13:38:56;24.20;77.20
3190;DHT22;1606;51.946;10.558;2023-07-20T13:41:26;24.20;76.30
3190;DHT22;1606;51.946;10.558;2023-07-20T13:43:57;24.30;77.00
3190;DHT22;1606;51.946;10.558;2023-07-20T13:46:25;24.00;79.50
3190;DHT22;1606;51.946;10.558;2023-07-20T13:48:56;23.70;78.50
3190;DHT22;1606;51.946;10.558;2023-07-20T13:51:24;23.70;81.80
3190;DHT22;1606;51.946;10.558;2023-07-20T13:53:54;23.80;79.50
3190;DHT22;1606;51.946;10.558;2023-07-20T13:56:22;24.00;81.00
3190;DHT22;1606;51.946;10.558;2023-07-20T13:58:51;23.90;81.00
3190;DHT22;1606;51.946;10.558;2023-07-20T14:01:20;24.10;80.00
3190;DHT22;1606;51.946;10.558;2023-07-20T14:03:52;24.10;78.20
3190;DHT22;1606;51.946;10.558;2023-07-20T14:06:20;24.20;77.30
3190;DHT22;1606;51.946;10.558;2023-07-20T14:08:52;24.00;77.30
3190;DHT22;1606;51.946;10.558;2023-07-20T14:11:20;24.00;78.00
3190;DHT22;1606;51.946;10.558;2023-07-20T14:13:51;24.10;77.60
3190;DHT22;1606;51.946;10.558;2023-07-20T14:16:21;24.00;77.50
3190;DHT22;1606;51.946;10.558;2023-07-20T14:18:50;24.10;80.90
3190;DHT22;1606;51.946;10.558;2023-07-20T14:21:19;24.00;77.90
3190;DHT22;1606;51.946;10.558;2023-07-20T14:23:48;23.80;80.40
3190;DHT22;1606;51.946;10.558;2023-07-20T14:26:20;24.00;79.50
3190;DHT22;1606;51.946;10.558;2023-07-20T14:28:48;24.00;77.10
3190;DHT22;1606;51.946;10.558;2023-07-20T14:31:21;24.20;79.60
3190;DHT22;1606;51.946;10.558;2023-07-20T14:33:48;24.40;77.90
3190;DHT22;1606;51.946;10.558;2023-07-20T14:36:21;24.50;77.00
3190;DHT22;1606;51.946;10.558;2023-07-20T14:38:52;24.50;74.40
3190;DHT22;1606;51.946;10.558;2023-07-20T14:41:20;24.50;76.00
3190;DHT22;1606;51.946;10.558;2023-07-20T14:43:48;24.50;77.50
3190;DHT22;1606;51.946;10.558;2023-07-20T14:46:16;24.30;76.00
3190;DHT22;1606;51.946;10.558;2023-07-20T14:48:48;24.40;78.20
3190;DHT22;1606;51.946;10.558;2023-07-20T14:51:18;24.60;76.60
3190;DHT22;1606;51.946;10.558;2023-07-20T14:53:46;24.60;76.20
3190;DHT22;1606;51.946;10.558;2023-07-20T14:56:14;24.70;76.80
3190;DHT22;1606;51.946;10.558;2023-07-20T14:58:42;24.70;76.60
3190;DHT22;1606;51.946;10.558;2023-07-20T15:01:10;24.60;74.20
3190;DHT22;1606;51.946;10.558;2023-07-20T15:03:38;24.30;76.60
3190;DHT22;1606;51.946;10.558;2023-07-20T15:06:11;23.80;77.30
3190;DHT22;1606;51.946;10.558;2023-07-20T15:08:39;24.00;79.70
3190;DHT22;1606;51.946;10.558;2023-07-20T15:11:07;24.20;77.20
3190;DHT22;1606;51.946;10.558;2023-07-20T15:13:35;24.20;77.40
3190;DHT22;1606;51.946;10.558;2023-07-20T15:16:03;24.30;74.70
3190;DHT22;1606;51.946;10.558;2023-07-20T15:18:31;24.30;77.50
3190;DHT22;1606;51.946;10.558;2023-07-20T15:21:14;24.20;78.60
3190;DHT22;1606;51.946;10.558;2023-07-20T15:23:43;24.30;76.50
3190;DHT22;1606;51.946;10.558;2023-07-20T15:26:11;24.40;76.20
3190;DHT22;1606;51.946;10.558;2023-07-20T15:28:39;24.50;75.50
3190;DHT22;1606;51.946;10.558;2023-07-20T15:31:07;24.70;76.60
3190;DHT22;1606;51.946;10.558;2023-07-20T15:33:35;24.70;75.90
3190;DHT22;1606;51.946;10.558;2023-07-20T15:36:06;24.80;74.80
3190;DHT22;1606;51.946;10.558;2023-07-20T15:38:36;24.90;77.50
3190;DHT22;1606;51.946;10.558;2023-07-20T15:41:05;24.90;73.20
3190;DHT22;1606;51.946;10.558;2023-07-20T15:43:33;24.70;75.70
3190;DHT22;1606;51.946;10.558;2023-07-20T15:49:02;24.40;75.90
3190;DHT22;1606;51.946;10.558;2023-07-20T15:51:32;24.30;76.60
3190;DHT22;1606;51.946;10.558;2023-07-20T15:54:01;24.40;75.50
3190;DHT22;1606;51.946;10.558;2023-07-20T15:56:32;24.20;76.60
3190;DHT22;1606;51.946;10.558;2023-07-20T15:59:00;24.00;75.70
3190;DHT22;1606;51.946;10.558;2023-07-20T16:01:28;24.00;77.10
3190;DHT22;1606;51.946;10.558;2023-07-20T16:03:57;24.10;76.40
3190;DHT22;1606;51.946;10.558;2023-07-20T16:06:25;24.00;77.30